Time,TemperatureF,DewpointF,PressureIn,WindDirection,WindDirectionDegrees,WindSpeedMPH,WindSpeedGustMPH,Humidity,HourlyPrecipIn,Conditions,Clouds,dailyrainin,SolarRadiationWatts/m^2,SoftwareType,DateUTC
2013-04-10 00:03:00,56.0,41.0,-100.00,North,11,1.0,6.0,57,0.00,,,0.00,0.000000,,2013-04-10 04:03:00,
2013-04-10 00:33:00,56.0,41.0,-100.00,ENE,63,2.0,7.0,56,0.00,,,0.00,0.000000,,2013-04-10 04:33:00,
2013-04-10 00:43:00,56.0,41.0,-100.00,ENE,63,2.0,7.0,56,0.00,,,0.00,0.000000,,2013-04-10 04:43:00,
2013-04-10 00:53:00,56.0,41.0,-100.00,ENE,63,2.0,7.0,56,0.00,,,0.00,0.000000,,2013-04-10 04:53:00,
2013-04-10 01:03:00,56.0,41.0,-100.00,ENE,63,2.0,7.0,56,0.00,,,0.00,0.000000,,2013-04-10 05:03:00,
2013-04-10 01:33:00,55.0,41.0,-100.00,NE,38,1.0,5.0,58,0.00,,,0.00,0.000000,,2013-04-10 05:33:00,
2013-04-10 01:43:00,55.0,41.0,-100.00,NE,38,1.0,5.0,58,0.00,,,0.00,0.000000,,2013-04-10 05:43:00,
2013-04-10 01:53:00,55.0,41.0,-100.00,NE,38,1.0,5.0,58,0.00,,,0.00,0.000000,,2013-04-10 05:53:00,
2013-04-10 02:03:00,55.0,41.0,-100.00,NE,38,1.0,5.0,58,0.00,,,0.00,0.000000,,2013-04-10 06:03:00,
2013-04-10 02:32:00,55.0,41.0,-100.00,NE,44,2.0,6.0,60,0.00,,,0.00,0.000000,,2013-04-10 06:32:00,
2013-04-10 02:42:00,55.0,41.0,-100.00,NE,44,2.0,6.0,60,0.00,,,0.00,0.000000,,2013-04-10 06:42:00,
2013-04-10 02:52:00,55.0,41.0,-100.00,NE,44,2.0,6.0,60,0.00,,,0.00,0.000000,,2013-04-10 06:52:00,
2013-04-10 03:02:00,55.0,41.0,-100.00,NE,44,2.0,6.0,60,0.00,,,0.00,0.000000,,2013-04-10 07:02:00,
2013-04-10 03:32:00,50.0,47.0,-100.00,NE,51,3.0,21.0,88,0.03,,,0.03,0.000000,,2013-04-10 07:32:00,
2013-04-10 03:43:00,50.0,47.0,-100.00,NE,51,3.0,21.0,88,0.03,,,0.03,0.000000,,2013-04-10 07:43:00,
2013-04-10 03:52:00,50.0,47.0,-100.00,NE,51,3.0,21.0,88,0.03,,,0.03,0.000000,,2013-04-10 07:52:00,
2013-04-10 04:02:00,50.0,47.0,-100.00,NE,51,3.0,21.0,88,0.03,,,0.03,0.000000,,2013-04-10 08:02:00,
2013-04-10 04:32:00,49.0,46.0,-100.00,NE,41,1.0,9.0,91,0.00,,,0.03,0.000000,,2013-04-10 08:32:00,
2013-04-10 04:43:00,49.0,46.0,-100.00,NE,41,1.0,9.0,91,0.00,,,0.03,0.000000,,2013-04-10 08:43:00,
2013-04-10 04:52:00,49.0,46.0,-100.00,NE,41,1.0,9.0,91,0.00,,,0.03,0.000000,,2013-04-10 08:52:00,
2013-04-10 05:02:00,49.0,46.0,-100.00,NE,41,1.0,9.0,91,0.00,,,0.03,0.000000,,2013-04-10 09:02:00,
2013-04-10 05:33:00,49.0,47.0,-100.00,SSE,159,1.0,6.0,94,0.01,,,0.04,0.000000,,2013-04-10 09:33:00,
2013-04-10 05:43:00,49.0,47.0,-100.00,SSE,159,1.0,6.0,94,0.01,,,0.04,0.000000,,2013-04-10 09:43:00,
2013-04-10 05:53:00,49.0,47.0,-100.00,SSE,159,1.0,6.0,94,0.01,,,0.04,0.000000,,2013-04-10 09:53:00,
2013-04-10 06:03:00,49.0,47.0,-100.00,SSE,159,1.0,6.0,94,0.01,,,0.04,0.000000,,2013-04-10 10:03:00,
2013-04-10 06:33:00,49.0,48.0,-100.00,East,95,1.0,4.0,95,0.00,,,0.04,0.000000,,2013-04-10 10:33:00,
2013-04-10 06:43:00,49.0,48.0,-100.00,East,95,1.0,4.0,95,0.00,,,0.04,0.000000,,2013-04-10 10:43:00,
2013-04-10 06:53:00,49.0,48.0,-100.00,East,95,1.0,4.0,95,0.00,,,0.04,0.000000,,2013-04-10 10:53:00,
2013-04-10 07:03:00,49.0,48.0,-100.00,East,95,1.0,4.0,95,0.00,,,0.04,0.000000,,2013-04-10 11:03:00,
2013-04-10 09:33:00,52.0,48.0,-100.00,NW,326,2.0,7.0,85,-99.99,,,0.04,166.000000,,2013-04-10 13:33:00,
2013-04-10 09:43:00,52.0,48.0,-100.00,NW,326,2.0,7.0,85,-99.99,,,0.04,166.000000,,2013-04-10 13:43:00,
2013-04-10 09:53:00,52.0,48.0,-100.00,NW,326,2.0,7.0,85,-99.99,,,0.04,166.000000,,2013-04-10 13:53:00,
2013-04-10 10:02:00,52.0,48.0,-100.00,NW,326,2.0,7.0,85,-99.99,,,0.04,166.000000,,2013-04-10 14:02:00,
2013-04-10 10:33:00,55.0,48.0,-100.00,NNW,342,2.0,7.0,78,0.00,,,0.04,311.000000,,2013-04-10 14:33:00,
2013-04-10 10:42:00,55.0,48.0,-100.00,NNW,342,2.0,7.0,78,0.00,,,0.04,311.000000,,2013-04-10 14:42:00,
2013-04-10 10:52:00,55.0,48.0,-100.00,NNW,342,2.0,7.0,78,0.00,,,0.04,311.000000,,2013-04-10 14:52:00,
2013-04-10 11:03:00,55.0,48.0,-100.00,NNW,342,2.0,7.0,78,0.00,,,0.04,311.000000,,2013-04-10 15:03:00,
2013-04-10 12:33:00,60.0,51.0,-100.00,NE,55,2.0,6.0,72,-99.99,,,0.04,329.000000,,2013-04-10 16:33:00,
2013-04-10 12:43:00,60.0,51.0,-100.00,NE,55,2.0,6.0,72,-99.99,,,0.04,329.000000,,2013-04-10 16:43:00,
2013-04-10 12:53:00,60.0,51.0,-100.00,NE,55,2.0,6.0,72,-99.99,,,0.04,329.000000,,2013-04-10 16:53:00,
2013-04-10 13:03:00,60.0,51.0,-100.00,NE,55,2.0,6.0,72,-99.99,,,0.04,329.000000,,2013-04-10 17:03:00,
2013-04-10 13:34:00,62.0,51.0,-100.00,NNE,19,3.0,6.0,66,0.00,,,0.04,367.000000,,2013-04-10 17:34:00,
2013-04-10 13:43:00,62.0,51.0,-100.00,NNE,19,3.0,6.0,66,0.00,,,0.04,367.000000,,2013-04-10 17:43:00,
2013-04-10 13:53:00,62.0,51.0,-100.00,NNE,19,3.0,6.0,66,0.00,,,0.04,367.000000,,2013-04-10 17:53:00,
2013-04-10 14:03:00,62.0,51.0,-100.00,NNE,19,3.0,6.0,66,0.00,,,0.04,367.000000,,2013-04-10 18:03:00,
2013-04-10 14:33:00,59.0,49.0,-100.00,NNW,345,4.0,9.0,70,0.00,,,0.04,201.000000,,2013-04-10 18:33:00,
2013-04-10 14:43:00,59.0,49.0,-100.00,NNW,345,4.0,9.0,70,0.00,,,0.04,201.000000,,2013-04-10 18:43:00,
2013-04-10 14:53:00,59.0,49.0,-100.00,NNW,345,4.0,9.0,70,0.00,,,0.04,201.000000,,2013-04-10 18:53:00,
2013-04-10 15:03:00,59.0,49.0,-100.00,NNW,345,4.0,9.0,70,0.00,,,0.04,201.000000,,2013-04-10 19:03:00,
2013-04-10 15:33:00,62.0,50.0,-100.00,ENE,61,3.0,7.0,65,0.00,,,0.04,199.000000,,2013-04-10 19:33:00,
2013-04-10 15:42:00,62.0,50.0,-100.00,ENE,61,3.0,7.0,65,0.00,,,0.04,199.000000,,2013-04-10 19:42:00,
2013-04-10 15:53:00,62.0,50.0,-100.00,ENE,61,3.0,7.0,65,0.00,,,0.04,199.000000,,2013-04-10 19:53:00,
2013-04-10 16:03:00,62.0,50.0,-100.00,ENE,61,3.0,7.0,65,0.00,,,0.04,199.000000,,2013-04-10 20:03:00,
2013-04-10 16:33:00,66.0,52.0,-100.00,NNE,33,2.0,8.0,60,0.00,,,0.04,310.000000,,2013-04-10 20:33:00,
2013-04-10 16:43:00,66.0,52.0,-100.00,NNE,33,2.0,8.0,60,0.00,,,0.04,310.000000,,2013-04-10 20:43:00,
2013-04-10 16:53:00,66.0,52.0,-100.00,NNE,33,2.0,8.0,60,0.00,,,0.04,310.000000,,2013-04-10 20:53:00,
2013-04-10 17:03:00,66.0,52.0,-100.00,NNE,33,2.0,8.0,60,0.00,,,0.04,310.000000,,2013-04-10 21:03:00,
2013-04-10 17:33:00,67.0,52.0,-100.00,East,81,2.0,9.0,58,0.00,,,0.04,438.000000,,2013-04-10 21:33:00,
2013-04-10 17:43:00,67.0,52.0,-100.00,East,81,2.0,9.0,58,0.00,,,0.04,438.000000,,2013-04-10 21:43:00,
2013-04-10 17:53:00,67.0,52.0,-100.00,East,81,2.0,9.0,58,0.00,,,0.04,438.000000,,2013-04-10 21:53:00,
2013-04-10 18:03:00,67.0,52.0,-100.00,East,81,2.0,9.0,58,0.00,,,0.04,438.000000,,2013-04-10 22:03:00,
2013-04-10 18:34:00,63.0,50.0,-100.00,NNW,339,1.0,8.0,63,0.00,,,0.04,137.000000,,2013-04-10 22:34:00,
2013-04-10 18:43:00,63.0,50.0,-100.00,NNW,339,1.0,8.0,63,0.00,,,0.04,137.000000,,2013-04-10 22:43:00,
2013-04-10 18:53:00,63.0,50.0,-100.00,NNW,339,1.0,8.0,63,0.00,,,0.04,137.000000,,2013-04-10 22:53:00,
2013-04-10 19:03:00,63.0,50.0,-100.00,NNW,339,1.0,8.0,63,0.00,,,0.04,137.000000,,2013-04-10 23:03:00,
2013-04-10 19:33:00,59.0,52.0,-100.00,South,178,3.0,14.0,78,0.06,,,0.10,13.000000,,2013-04-10 23:33:00,
2013-04-10 19:43:00,59.0,52.0,-100.00,South,178,3.0,14.0,78,0.06,,,0.10,13.000000,,2013-04-10 23:43:00,
2013-04-10 19:53:00,59.0,52.0,-100.00,South,178,3.0,14.0,78,0.06,,,0.10,13.000000,,2013-04-10 23:53:00,
2013-04-10 20:02:00,59.0,52.0,-100.00,South,178,3.0,14.0,78,0.06,,,0.10,13.000000,,2013-04-11 00:02:00,
2013-04-10 20:32:00,56.0,54.0,-100.00,WNW,301,3.0,10.0,94,0.04,,,0.14,0.000000,,2013-04-11 00:32:00,
2013-04-10 20:43:00,56.0,54.0,-100.00,WNW,301,3.0,10.0,94,0.04,,,0.14,0.000000,,2013-04-11 00:43:00,
2013-04-10 20:53:00,56.0,54.0,-100.00,WNW,301,3.0,10.0,94,0.04,,,0.14,0.000000,,2013-04-11 00:53:00,
2013-04-10 21:02:00,56.0,54.0,-100.00,WNW,301,3.0,10.0,94,0.04,,,0.14,0.000000,,2013-04-11 01:02:00,
2013-04-10 21:32:00,55.0,54.0,-100.00,West,281,1.0,6.0,95,0.00,,,0.14,0.000000,,2013-04-11 01:32:00,
2013-04-10 21:42:00,55.0,54.0,-100.00,West,281,1.0,6.0,95,0.00,,,0.14,0.000000,,2013-04-11 01:42:00,
2013-04-10 21:52:00,55.0,54.0,-100.00,West,281,1.0,6.0,95,0.00,,,0.14,0.000000,,2013-04-11 01:52:00,
2013-04-10 22:03:00,55.0,54.0,-100.00,West,281,1.0,6.0,95,0.00,,,0.14,0.000000,,2013-04-11 02:03:00,
2013-04-10 22:32:00,55.0,54.0,-100.00,WNW,296,0.0,8.0,96,0.04,,,0.18,0.000000,,2013-04-11 02:32:00,
2013-04-10 22:42:00,55.0,54.0,-100.00,WNW,296,0.0,8.0,96,0.04,,,0.18,0.000000,,2013-04-11 02:42:00,
2013-04-10 22:53:00,55.0,54.0,-100.00,WNW,296,0.0,8.0,96,0.04,,,0.18,0.000000,,2013-04-11 02:53:00,
2013-04-10 23:02:00,55.0,54.0,-100.00,WNW,296,0.0,8.0,96,0.04,,,0.18,0.000000,,2013-04-11 03:02:00,
2013-04-10 23:33:00,55.0,54.0,-100.00,NW,316,0.0,4.0,97,0.00,,,0.18,0.000000,,2013-04-11 03:33:00,
2013-04-10 23:43:00,55.0,54.0,-100.00,NW,316,0.0,4.0,97,0.00,,,0.18,0.000000,,2013-04-11 03:43:00,
2013-04-10 23:54:00,55.0,54.0,-100.00,NW,316,0.0,4.0,97,0.00,,,0.18,0.000000,,2013-04-11 03:54:00,